createdAt,value
2022-10-17T00:00:42.417Z,5.28
2022-10-17T00:05:47.209Z,3.55
2022-10-17T00:10:58.475Z,3.33
2022-10-17T00:16:01.239Z,7.00
2022-10-17T00:21:04.099Z,5.60
2022-10-17T00:26:08.103Z,5.57
2022-10-17T00:31:10.828Z,5.53
2022-10-17T00:36:15.706Z,8.30
2022-10-17T00:41:22.089Z,8.35
2022-10-17T00:46:26.382Z,3.67
2022-10-17T00:51:34.206Z,4.25
2022-10-17T00:56:40.391Z,3.08
2022-10-17T01:01:49.721Z,6.25
2022-10-17T01:06:52.308Z,4.68
2022-10-17T01:12:05.539Z,4.68
2022-10-17T01:17:14.758Z,3.17
2022-10-17T01:22:24.563Z,3.95
2022-10-17T01:27:38.710Z,6.72
2022-10-17T01:32:48.109Z,8.15
2022-10-17T01:37:57.383Z,6.63
2022-10-17T01:43:05.372Z,5.55
2022-10-17T01:48:16.292Z,5.28
2022-10-17T01:53:23.903Z,4.57
2022-10-17T01:58:31.565Z,4.50
2022-10-17T02:03:36.879Z,4.60
2022-10-17T02:08:44.219Z,5.15
2022-10-17T02:14:04.619Z,7.43
2022-10-17T02:19:27.209Z,4.45
2022-10-17T02:24:36.709Z,4.13
2022-10-17T02:29:47.636Z,5.13
2022-10-17T02:34:53.882Z,5.65
2022-10-17T02:39:58.834Z,5.40
2022-10-17T02:45:03.112Z,5.65
2022-10-17T02:50:11.010Z,4.35
2022-10-17T02:55:18.872Z,3.75
2022-10-17T03:00:26.056Z,6.30
2022-10-17T03:05:30.763Z,4.57
2022-10-17T03:10:33.320Z,7.93
2022-10-17T03:15:35.904Z,5.80
2022-10-17T03:20:39.855Z,5.93
2022-10-17T03:25:42.933Z,6.03
2022-10-17T03:30:45.569Z,4.30
2022-10-17T03:40:57.177Z,9.95
2022-10-17T03:46:00.678Z,7.13
2022-10-17T03:51:07.039Z,9.17
2022-10-17T03:56:11.033Z,4.18
2022-10-17T04:01:15.682Z,7.05
2022-10-17T04:06:20.170Z,4.82
2022-10-17T04:16:26.013Z,6.88
2022-10-17T04:21:30.620Z,4.18
2022-10-17T04:26:33.316Z,7.55
2022-10-17T04:31:35.930Z,5.50
2022-10-17T04:36:39.844Z,7.75
2022-10-17T04:41:42.498Z,4.38
2022-10-17T04:46:45.085Z,4.05
2022-10-17T04:51:48.956Z,4.57
2022-10-17T04:56:51.697Z,5.47
2022-10-17T05:01:54.344Z,5.35
2022-10-17T05:06:58.346Z,6.45
2022-10-17T05:12:00.941Z,5.95
2022-10-17T05:17:03.497Z,5.45
2022-10-17T05:22:07.827Z,5.20
2022-10-17T05:27:10.407Z,6.13
2022-10-17T05:32:13.036Z,7.05
2022-10-17T05:37:17.003Z,11.30
2022-10-17T05:42:19.699Z,5.75
2022-10-17T05:47:22.360Z,5.38
2022-10-17T05:52:26.438Z,4.60
2022-10-17T05:57:29.215Z,4.20
2022-10-17T06:02:32.818Z,6.20
2022-10-17T06:07:39.686Z,7.00
2022-10-17T06:12:42.398Z,6.05
2022-10-17T06:17:44.932Z,6.30
2022-10-17T06:22:48.958Z,5.30
2022-10-17T06:32:59.334Z,5.03
2022-10-17T06:38:04.819Z,7.15
2022-10-17T06:43:07.423Z,5.90
2022-10-17T06:48:10.200Z,7.10
2022-10-17T06:53:14.130Z,5.93
2022-10-17T06:58:16.739Z,4.97
2022-10-17T07:03:19.269Z,5.63
2022-10-17T07:08:23.574Z,4.57
2022-10-17T07:18:28.771Z,9.32
2022-10-17T07:23:34.285Z,5.57
2022-10-17T07:28:38.191Z,7.07
2022-10-17T07:33:40.878Z,6.40
2022-10-17T07:38:45.787Z,9.95
2022-10-17T07:43:48.504Z,5.63
2022-10-17T07:48:51.228Z,5.28
2022-10-17T07:53:55.174Z,6.60
2022-10-17T07:58:59.199Z,7.15
2022-10-17T08:04:04.120Z,6.32
2022-10-17T08:09:08.398Z,9.88
2022-10-17T08:19:13.935Z,8.75
2022-10-17T08:24:17.871Z,5.10
2022-10-17T08:29:22.592Z,2.88
2022-10-17T08:34:25.206Z,4.72
2022-10-17T08:39:29.091Z,6.25
2022-10-17T08:44:47.541Z,5.95
2022-10-17T08:49:53.993Z,5.22
2022-10-17T08:54:59.766Z,6.22
2022-10-17T09:00:02.420Z,4.57
2022-10-17T09:05:27.891Z,3.28
2022-10-17T09:10:41.848Z,3.42
2022-10-17T09:15:56.817Z,2.60
2022-10-17T09:21:06.457Z,4.18
2022-10-17T09:26:12.292Z,3.13
2022-10-17T09:31:22.138Z,3.92
2022-10-17T09:36:28.676Z,3.75
2022-10-17T09:41:45.246Z,6.28
2022-10-17T09:47:02.964Z,2.22
2022-10-17T09:52:07.566Z,5.38
2022-10-17T09:57:13.361Z,1.98
2022-10-17T10:02:19.501Z,2.50
2022-10-17T10:07:26.909Z,3.22
2022-10-17T10:12:35.007Z,3.20
2022-10-17T10:17:41.711Z,2.40
2022-10-17T10:22:44.613Z,3.40
2022-10-17T10:32:51.497Z,2.10
2022-10-17T10:37:57.455Z,2.88
2022-10-17T10:43:05.321Z,1.67
2022-10-17T10:48:21.205Z,2.83
2022-10-17T10:53:35.434Z,5.43
2022-10-17T10:58:49.633Z,4.00
2022-10-17T11:04:02.686Z,5.43
2022-10-17T11:09:14.756Z,2.92
2022-10-17T11:14:23.823Z,4.07
2022-10-17T11:19:34.905Z,3.90
2022-10-17T11:24:44.859Z,2.95
2022-10-17T11:29:48.813Z,6.50
2022-10-17T11:34:57.058Z,6.18
2022-10-17T11:40:06.470Z,4.72
2022-10-17T11:45:14.988Z,3.15
2022-10-17T11:55:48.663Z,4.15
2022-10-17T12:01:00.364Z,3.55
2022-10-17T12:06:10.405Z,3.47
2022-10-17T12:11:24.079Z,2.15
2022-10-17T12:16:45.715Z,3.05
2022-10-17T12:21:56.133Z,3.65
2022-10-17T12:26:58.727Z,3.95
2022-10-17T12:32:13.448Z,1.52
2022-10-17T12:37:16.196Z,2.20
2022-10-17T12:42:34.156Z,4.82
2022-10-17T12:47:39.999Z,1.70
2022-10-17T12:53:07.307Z,3.60
2022-10-17T12:58:15.405Z,2.30
2022-10-17T13:03:23.069Z,2.22
2022-10-17T13:08:28.819Z,2.78
2022-10-17T13:13:39.334Z,6.15
2022-10-17T13:18:43.662Z,3.80
2022-10-17T13:23:47.897Z,2.53
2022-10-17T13:29:03.079Z,3.38
2022-10-17T13:34:16.446Z,4.30
2022-10-17T13:39:32.554Z,3.58
2022-10-17T13:44:44.933Z,6.75
2022-10-17T13:49:51.610Z,4.07
2022-10-17T13:55:06.780Z,5.18
2022-10-17T14:00:19.353Z,4.88
2022-10-17T14:05:23.996Z,5.78
2022-10-17T14:10:31.719Z,2.80
2022-10-17T14:15:36.627Z,2.58
2022-10-17T14:21:25.547Z,2.25
2022-10-17T14:26:15.379Z,2.73
2022-10-17T14:31:30.056Z,4.88
2022-10-17T14:36:36.065Z,3.22
2022-10-17T14:41:44.495Z,2.33
2022-10-17T14:46:51.094Z,3.53
2022-10-17T14:52:17.661Z,5.15
2022-10-17T14:57:25.346Z,8.15
2022-10-17T15:02:31.472Z,1.90
2022-10-17T15:07:34.305Z,6.15
2022-10-17T15:12:38.529Z,4.65
2022-10-17T15:17:41.871Z,3.25
2022-10-17T15:22:44.682Z,2.88
2022-10-17T15:27:48.630Z,3.75
2022-10-17T15:32:52.167Z,2.88
2022-10-17T15:37:54.996Z,5.07
2022-10-17T15:42:59.108Z,2.65
2022-10-17T15:48:06.873Z,5.80
2022-10-17T15:53:12.666Z,4.70
2022-10-17T15:58:17.633Z,4.97
2022-10-17T16:03:23.166Z,4.50
2022-10-17T16:08:28.438Z,7.30
2022-10-17T16:13:32.690Z,2.95
2022-10-17T16:18:35.239Z,11.30
2022-10-17T16:23:37.799Z,3.78
2022-10-17T16:28:46.103Z,4.63
2022-10-17T16:33:50.308Z,10.07
2022-10-17T16:43:59.834Z,9.85
2022-10-17T16:49:02.532Z,5.97
2022-10-17T16:54:05.350Z,9.90
2022-10-17T16:59:11.555Z,7.97
2022-10-17T17:04:14.300Z,6.97
2022-10-17T17:09:16.928Z,6.25
2022-10-17T17:14:20.864Z,7.50
2022-10-17T17:24:26.090Z,8.15
2022-10-17T17:29:30.087Z,46.45
2022-10-17T17:34:36.976Z,39.33
2022-10-17T17:39:39.787Z,13.68
2022-10-17T17:44:44.277Z,7.20
2022-10-17T17:49:47.105Z,6.03
2022-10-17T17:54:50.224Z,5.47
2022-10-17T17:59:54.770Z,6.05
2022-10-17T18:04:57.745Z,5.80
2022-10-17T18:10:00.578Z,7.80
2022-10-17T18:15:06.507Z,7.05
2022-10-17T18:20:09.829Z,7.80
2022-10-17T18:25:12.664Z,14.80
2022-10-17T18:30:16.649Z,14.10
2022-10-17T18:35:19.376Z,9.13
2022-10-17T18:40:22.192Z,14.95
2022-10-17T18:45:26.314Z,18.83
2022-10-17T18:50:28.902Z,20.48
2022-10-17T18:55:31.939Z,25.95
2022-10-17T19:00:36.388Z,23.25
2022-10-17T19:05:40.018Z,21.75
2022-10-17T19:10:43.887Z,25.83
2022-10-17T19:15:47.861Z,23.80
2022-10-17T19:20:52.452Z,22.15
2022-10-17T19:25:57.066Z,19.15
2022-10-17T19:31:03.846Z,19.33
2022-10-17T19:36:08.674Z,19.75
2022-10-17T19:41:12.915Z,14.52
2022-10-17T19:51:24.416Z,11.80
2022-10-17T19:56:28.913Z,9.07
2022-10-17T20:01:35.201Z,9.98
2022-10-17T20:06:38.678Z,10.02
2022-10-17T20:11:41.515Z,11.00
2022-10-17T20:16:52.721Z,8.80
2022-10-17T20:21:55.470Z,10.65
2022-10-17T20:26:57.981Z,6.00
2022-10-17T20:32:02.234Z,8.02
2022-10-17T20:42:07.743Z,9.15
2022-10-17T20:47:16.177Z,10.32
2022-10-17T20:52:19.136Z,5.15
2022-10-17T20:57:21.984Z,5.68
2022-10-17T21:02:25.963Z,6.70
2022-10-17T21:07:28.832Z,6.60
2022-10-17T21:12:50.083Z,5.95
2022-10-17T21:17:55.722Z,3.97
2022-10-17T21:23:00.526Z,4.30
2022-10-17T21:28:03.216Z,5.00
2022-10-17T21:33:07.149Z,8.02
2022-10-17T21:38:09.750Z,8.05
2022-10-17T21:43:12.371Z,8.55
2022-10-17T21:48:16.303Z,5.95
2022-10-17T21:53:18.943Z,6.65
2022-10-17T21:58:22.715Z,3.45
2022-10-17T22:03:26.674Z,4.53
2022-10-17T22:08:29.815Z,7.38
2022-10-17T22:13:32.342Z,5.55
2022-10-17T22:18:36.753Z,5.70
2022-10-17T22:23:39.305Z,4.72
2022-10-17T22:28:42.600Z,5.20
2022-10-17T22:33:46.615Z,5.70
2022-10-17T22:38:49.238Z,5.10
2022-10-17T22:43:51.804Z,4.82
2022-10-17T22:48:55.708Z,4.63
2022-10-17T22:53:58.232Z,6.15
2022-10-17T22:59:00.742Z,3.35
2022-10-17T23:04:04.636Z,4.40
2022-10-17T23:09:07.260Z,5.30
2022-10-17T23:14:09.805Z,4.15
2022-10-17T23:19:13.722Z,5.22
2022-10-17T23:24:16.325Z,7.47
2022-10-17T23:29:18.912Z,5.35
2022-10-17T23:34:22.818Z,5.72
2022-10-17T23:39:25.394Z,6.57
2022-10-17T23:44:28.097Z,5.47
2022-10-17T23:49:32.300Z,6.72
2022-10-17T23:54:34.887Z,11.30
2022-10-17T23:59:37.424Z,4.63
